sensor_id;sensor_type;location;lat;lon;timestamp;temperature;humidity
15991;DHT22;8100;50.994;4.538;2023-02-12T00:01:43;7.20;1.00
15991;DHT22;8100;50.994;4.538;2023-02-12T00:04:30;7.10;1.00
15991;DHT22;8100;50.994;4.538;2023-02-12T00:07:17;7.10;1.00
15991;DHT22;8100;50.994;4.538;2023-02-12T00:10:07;7.10;1.00
15991;DHT22;8100;50.994;4.538;2023-02-12T00:12:54;7.10;1.00
15991;DHT22;8100;50.994;4.538;2023-02-12T00:15:42;7.10;1.00
15991;DHT22;8100;50.994;4.538;2023-02-12T00:18:29;7.00;1.00
15991;DHT22;8100;50.994;4.538;2023-02-12T00:21:16;7.00;1.00
15991;DHT22;8100;50.994;4.538;2023-02-12T00:24:04;7.00;1.00
15991;DHT22;8100;50.994;4.538;2023-02-12T00:26:52;7.00;1.00
15991;DHT22;8100;50.994;4.538;2023-02-12T00:29:40;6.90;1.00
15991;DHT22;8100;50.994;4.538;2023-02-12T00:32:27;6.90;1.00
15991;DHT22;8100;50.994;4.538;2023-02-12T00:35:14;6.90;1.00
15991;DHT22;8100;50.994;4.538;2023-02-12T00:38:02;6.90;1.00
15991;DHT22;8100;50.994;4.538;2023-02-12T00:40:49;6.90;1.00
15991;DHT22;8100;50.994;4.538;2023-02-12T00:43:37;6.90;1.00
15991;DHT22;8100;50.994;4.538;2023-02-12T00:46:25;6.80;1.00
15991;DHT22;8100;50.994;4.538;2023-02-12T00:49:12;6.80;1.00
15991;DHT22;8100;50.994;4.538;2023-02-12T00:52:00;6.80;1.00
15991;DHT22;8100;50.994;4.538;2023-02-12T00:54:47;6.90;1.00
15991;DHT22;8100;50.994;4.538;2023-02-12T00:57:34;6.90;1.00
15991;DHT22;8100;50.994;4.538;2023-02-12T01:00:23;6.90;1.00
15991;DHT22;8100;50.994;4.538;2023-02-12T01:03:10;6.90;1.00
15991;DHT22;8100;50.994;4.538;2023-02-12T01:05:58;6.90;1.00
15991;DHT22;8100;50.994;4.538;2023-02-12T01:08:45;6.90;1.00
15991;DHT22;8100;50.994;4.538;2023-02-12T01:11:32;6.90;1.00
15991;DHT22;8100;50.994;4.538;2023-02-12T01:14:21;6.90;1.00
15991;DHT22;8100;50.994;4.538;2023-02-12T01:17:09;6.80;1.00
15991;DHT22;8100;50.994;4.538;2023-02-12T01:19:57;6.80;1.00
15991;DHT22;8100;50.994;4.538;2023-02-12T01:22:45;6.70;1.00
15991;DHT22;8100;50.994;4.538;2023-02-12T01:25:32;6.80;1.00
15991;DHT22;8100;50.994;4.538;2023-02-12T01:28:19;6.80;1.00
15991;DHT22;8100;50.994;4.538;2023-02-12T01:31:08;6.70;1.00
15991;DHT22;8100;50.994;4.538;2023-02-12T01:33:58;6.70;1.00
15991;DHT22;8100;50.994;4.538;2023-02-12T01:36:45;6.70;1.00
15991;DHT22;8100;50.994;4.538;2023-02-12T01:39:33;6.60;1.00
15991;DHT22;8100;50.994;4.538;2023-02-12T01:42:20;6.70;1.00
15991;DHT22;8100;50.994;4.538;2023-02-12T01:45:42;6.70;1.00
15991;DHT22;8100;50.994;4.538;2023-02-12T01:48:33;6.70;1.00
15991;DHT22;8100;50.994;4.538;2023-02-12T01:51:23;6.60;1.00
15991;DHT22;8100;50.994;4.538;2023-02-12T01:54:12;6.60;1.00
15991;DHT22;8100;50.994;4.538;2023-02-12T01:57:02;6.60;1.00
15991;DHT22;8100;50.994;4.538;2023-02-12T01:59:53;6.60;1.00
15991;DHT22;8100;50.994;4.538;2023-02-12T02:02:45;6.60;1.00
15991;DHT22;8100;50.994;4.538;2023-02-12T02:05:40;6.60;1.00
15991;DHT22;8100;50.994;4.538;2023-02-12T02:08:30;6.60;1.00
15991;DHT22;8100;50.994;4.538;2023-02-12T02:11:17;6.50;1.00
15991;DHT22;8100;50.994;4.538;2023-02-12T02:14:24;6.50;1.00
15991;DHT22;8100;50.994;4.538;2023-02-12T02:17:34;6.50;1.00
15991;DHT22;8100;50.994;4.538;2023-02-12T02:20:48;6.50;1.00
15991;DHT22;8100;50.994;4.538;2023-02-12T02:24:03;6.40;1.00
15991;DHT22;8100;50.994;4.538;2023-02-12T02:27:14;6.40;1.00
15991;DHT22;8100;50.994;4.538;2023-02-12T02:33:24;6.40;1.00
15991;DHT22;8100;50.994;4.538;2023-02-12T02:36:18;6.40;1.00
15991;DHT22;8100;50.994;4.538;2023-02-12T02:39:14;6.40;1.00
15991;DHT22;8100;50.994;4.538;2023-02-12T02:42:09;6.40;1.00
15991;DHT22;8100;50.994;4.538;2023-02-12T02:45:01;6.40;1.00
15991;DHT22;8100;50.994;4.538;2023-02-12T02:47:54;6.50;1.00
15991;DHT22;8100;50.994;4.538;2023-02-12T02:50:47;6.60;1.00
15991;DHT22;8100;50.994;4.538;2023-02-12T02:53:38;6.70;1.00
15991;DHT22;8100;50.994;4.538;2023-02-12T02:56:29;6.70;1.00
15991;DHT22;8100;50.994;4.538;2023-02-12T02:59:21;6.70;1.00
15991;DHT22;8100;50.994;4.538;2023-02-12T03:02:12;6.70;1.00
15991;DHT22;8100;50.994;4.538;2023-02-12T03:05:05;6.60;1.00
15991;DHT22;8100;50.994;4.538;2023-02-12T03:07:58;6.50;1.00
15991;DHT22;8100;50.994;4.538;2023-02-12T03:10:49;6.50;1.00
15991;DHT22;8100;50.994;4.538;2023-02-12T03:13:42;6.50;1.00
15991;DHT22;8100;50.994;4.538;2023-02-12T03:16:34;6.40;1.00
15991;DHT22;8100;50.994;4.538;2023-02-12T03:19:28;6.50;1.00
15991;DHT22;8100;50.994;4.538;2023-02-12T03:22:21;6.50;1.00
15991;DHT22;8100;50.994;4.538;2023-02-12T03:25:12;6.50;1.00
15991;DHT22;8100;50.994;4.538;2023-02-12T03:28:03;6.40;1.00
15991;DHT22;8100;50.994;4.538;2023-02-12T03:30:59;6.40;1.00
15991;DHT22;8100;50.994;4.538;2023-02-12T03:33:59;6.40;1.00
15991;DHT22;8100;50.994;4.538;2023-02-12T03:36:54;6.30;1.00
15991;DHT22;8100;50.994;4.538;2023-02-12T03:39:50;6.40;1.00
15991;DHT22;8100;50.994;4.538;2023-02-12T03:42:45;6.40;1.00
15991;DHT22;8100;50.994;4.538;2023-02-12T03:45:39;6.40;1.00
15991;DHT22;8100;50.994;4.538;2023-02-12T03:48:32;6.30;1.00
15991;DHT22;8100;50.994;4.538;2023-02-12T03:51:23;6.30;1.00
15991;DHT22;8100;50.994;4.538;2023-02-12T03:54:13;6.30;1.00
15991;DHT22;8100;50.994;4.538;2023-02-12T03:57:07;6.30;1.00
15991;DHT22;8100;50.994;4.538;2023-02-12T03:59:56;6.30;1.00
15991;DHT22;8100;50.994;4.538;2023-02-12T04:02:44;6.30;1.00
15991;DHT22;8100;50.994;4.538;2023-02-12T04:05:32;6.30;1.00
15991;DHT22;8100;50.994;4.538;2023-02-12T04:08:19;6.30;1.00
15991;DHT22;8100;50.994;4.538;2023-02-12T04:11:12;6.30;1.00
15991;DHT22;8100;50.994;4.538;2023-02-12T04:14:19;6.20;1.00
15991;DHT22;8100;50.994;4.538;2023-02-12T04:17:12;6.20;1.00
15991;DHT22;8100;50.994;4.538;2023-02-12T04:20:07;6.20;1.00
15991;DHT22;8100;50.994;4.538;2023-02-12T04:23:06;6.20;1.00
15991;DHT22;8100;50.994;4.538;2023-02-12T04:26:03;6.20;1.00
15991;DHT22;8100;50.994;4.538;2023-02-12T04:29:00;6.20;1.00
15991;DHT22;8100;50.994;4.538;2023-02-12T04:31:55;6.20;1.00
15991;DHT22;8100;50.994;4.538;2023-02-12T04:34:49;6.20;1.00
15991;DHT22;8100;50.994;4.538;2023-02-12T04:37:42;6.10;1.00
15991;DHT22;8100;50.994;4.538;2023-02-12T04:40:30;6.20;1.00
15991;DHT22;8100;50.994;4.538;2023-02-12T04:43:26;6.20;1.00
15991;DHT22;8100;50.994;4.538;2023-02-12T04:46:13;6.20;1.00
15991;DHT22;8100;50.994;4.538;2023-02-12T04:49:02;6.20;1.00
15991;DHT22;8100;50.994;4.538;2023-02-12T04:51:50;6.20;1.00
15991;DHT22;8100;50.994;4.538;2023-02-12T04:54:37;6.20;1.00
15991;DHT22;8100;50.994;4.538;2023-02-12T04:57:24;6.20;1.00
15991;DHT22;8100;50.994;4.538;2023-02-12T05:00:13;6.20;1.00
15991;DHT22;8100;50.994;4.538;2023-02-12T05:03:00;6.20;1.00
15991;DHT22;8100;50.994;4.538;2023-02-12T05:05:49;6.10;1.00
15991;DHT22;8100;50.994;4.538;2023-02-12T05:08:36;6.10;1.00
15991;DHT22;8100;50.994;4.538;2023-02-12T05:11:23;6.10;1.00
15991;DHT22;8100;50.994;4.538;2023-02-12T05:14:11;6.10;1.00
15991;DHT22;8100;50.994;4.538;2023-02-12T05:16:58;6.10;1.00
15991;DHT22;8100;50.994;4.538;2023-02-12T05:19:47;6.00;1.00
15991;DHT22;8100;50.994;4.538;2023-02-12T05:22:35;6.10;1.00
15991;DHT22;8100;50.994;4.538;2023-02-12T05:25:22;6.10;1.00
15991;DHT22;8100;50.994;4.538;2023-02-12T05:28:09;6.10;1.00
15991;DHT22;8100;50.994;4.538;2023-02-12T05:30:58;6.10;1.00
15991;DHT22;8100;50.994;4.538;2023-02-12T05:33:46;6.10;1.00
15991;DHT22;8100;50.994;4.538;2023-02-12T05:36:34;6.00;1.00
15991;DHT22;8100;50.994;4.538;2023-02-12T05:39:22;6.00;1.00
15991;DHT22;8100;50.994;4.538;2023-02-12T05:42:10;6.00;1.00
15991;DHT22;8100;50.994;4.538;2023-02-12T05:44:57;6.00;1.00
15991;DHT22;8100;50.994;4.538;2023-02-12T05:47:44;6.00;1.00
15991;DHT22;8100;50.994;4.538;2023-02-12T05:50:31;6.00;1.00
15991;DHT22;8100;50.994;4.538;2023-02-12T05:53:19;5.90;1.00
15991;DHT22;8100;50.994;4.538;2023-02-12T05:56:09;6.00;1.00
15991;DHT22;8100;50.994;4.538;2023-02-12T05:58:58;6.00;1.00
15991;DHT22;8100;50.994;4.538;2023-02-12T06:01:50;6.00;1.00
15991;DHT22;8100;50.994;4.538;2023-02-12T06:04:37;6.00;1.00
15991;DHT22;8100;50.994;4.538;2023-02-12T06:07:24;6.00;1.00
15991;DHT22;8100;50.994;4.538;2023-02-12T06:10:12;6.00;1.00
15991;DHT22;8100;50.994;4.538;2023-02-12T06:13:00;6.10;1.00
15991;DHT22;8100;50.994;4.538;2023-02-12T06:15:47;6.20;1.00
15991;DHT22;8100;50.994;4.538;2023-02-12T06:18:35;6.10;1.00
15991;DHT22;8100;50.994;4.538;2023-02-12T06:21:25;6.10;1.00
15991;DHT22;8100;50.994;4.538;2023-02-12T06:24:14;6.10;1.00
15991;DHT22;8100;50.994;4.538;2023-02-12T06:27:01;6.20;1.00
15991;DHT22;8100;50.994;4.538;2023-02-12T06:29:50;6.20;1.00
15991;DHT22;8100;50.994;4.538;2023-02-12T06:32:37;6.10;1.00
15991;DHT22;8100;50.994;4.538;2023-02-12T06:35:24;6.10;1.00
15991;DHT22;8100;50.994;4.538;2023-02-12T06:38:12;6.10;1.00
15991;DHT22;8100;50.994;4.538;2023-02-12T06:41:00;6.10;1.00
15991;DHT22;8100;50.994;4.538;2023-02-12T06:43:47;6.00;1.00
15991;DHT22;8100;50.994;4.538;2023-02-12T06:46:36;6.00;1.00
15991;DHT22;8100;50.994;4.538;2023-02-12T06:49:23;6.00;1.00
15991;DHT22;8100;50.994;4.538;2023-02-12T06:52:10;6.00;1.00
15991;DHT22;8100;50.994;4.538;2023-02-12T06:54:59;5.90;1.00
15991;DHT22;8100;50.994;4.538;2023-02-12T06:57:46;6.00;1.00
15991;DHT22;8100;50.994;4.538;2023-02-12T07:00:33;6.00;1.00
15991;DHT22;8100;50.994;4.538;2023-02-12T07:03:22;6.00;1.00
15991;DHT22;8100;50.994;4.538;2023-02-12T07:06:09;6.00;1.00
15991;DHT22;8100;50.994;4.538;2023-02-12T07:08:57;6.00;1.00
15991;DHT22;8100;50.994;4.538;2023-02-12T07:11:44;5.90;1.00
15991;DHT22;8100;50.994;4.538;2023-02-12T07:14:31;5.90;1.00
15991;DHT22;8100;50.994;4.538;2023-02-12T07:17:19;5.90;1.00
15991;DHT22;8100;50.994;4.538;2023-02-12T07:20:08;5.90;1.00
15991;DHT22;8100;50.994;4.538;2023-02-12T07:22:56;6.00;1.00
15991;DHT22;8100;50.994;4.538;2023-02-12T07:25:43;6.00;1.00
15991;DHT22;8100;50.994;4.538;2023-02-12T07:28:31;6.00;1.00
15991;DHT22;8100;50.994;4.538;2023-02-12T07:31:21;6.10;1.00
15991;DHT22;8100;50.994;4.538;2023-02-12T07:34:09;6.00;1.00
15991;DHT22;8100;50.994;4.538;2023-02-12T07:36:58;6.00;1.00
15991;DHT22;8100;50.994;4.538;2023-02-12T07:39:45;6.00;1.00
15991;DHT22;8100;50.994;4.538;2023-02-12T07:42:32;6.00;1.00
15991;DHT22;8100;50.994;4.538;2023-02-12T07:45:19;6.10;1.00
15991;DHT22;8100;50.994;4.538;2023-02-12T07:48:06;6.10;1.00
15991;DHT22;8100;50.994;4.538;2023-02-12T07:50:54;6.20;1.00
15991;DHT22;8100;50.994;4.538;2023-02-12T07:53:42;6.20;1.00
15991;DHT22;8100;50.994;4.538;2023-02-12T07:56:32;6.20;1.00
15991;DHT22;8100;50.994;4.538;2023-02-12T07:59:20;6.20;1.00
15991;DHT22;8100;50.994;4.538;2023-02-12T08:02:08;6.20;1.00
15991;DHT22;8100;50.994;4.538;2023-02-12T08:04:56;6.20;1.00
15991;DHT22;8100;50.994;4.538;2023-02-12T08:07:43;6.20;1.00
15991;DHT22;8100;50.994;4.538;2023-02-12T08:10:32;6.30;1.00
15991;DHT22;8100;50.994;4.538;2023-02-12T08:13:19;6.30;1.00
15991;DHT22;8100;50.994;4.538;2023-02-12T08:16:08;6.30;1.00
15991;DHT22;8100;50.994;4.538;2023-02-12T08:18:56;6.40;1.00
15991;DHT22;8100;50.994;4.538;2023-02-12T08:21:44;6.40;1.00
15991;DHT22;8100;50.994;4.538;2023-02-12T08:24:32;6.50;1.00
15991;DHT22;8100;50.994;4.538;2023-02-12T08:27:21;6.50;1.00
15991;DHT22;8100;50.994;4.538;2023-02-12T08:30:09;6.60;1.00
15991;DHT22;8100;50.994;4.538;2023-02-12T08:32:56;6.60;1.00
15991;DHT22;8100;50.994;4.538;2023-02-12T08:35:43;6.60;1.00
15991;DHT22;8100;50.994;4.538;2023-02-12T08:38:31;6.60;1.00
15991;DHT22;8100;50.994;4.538;2023-02-12T08:41:20;6.60;1.00
15991;DHT22;8100;50.994;4.538;2023-02-12T08:44:09;6.70;1.00
15991;DHT22;8100;50.994;4.538;2023-02-12T08:46:57;6.70;1.00
15991;DHT22;8100;50.994;4.538;2023-02-12T08:49:44;6.80;1.00
15991;DHT22;8100;50.994;4.538;2023-02-12T08:52:33;6.80;1.00
15991;DHT22;8100;50.994;4.538;2023-02-12T08:55:20;6.90;1.00
15991;DHT22;8100;50.994;4.538;2023-02-12T08:58:07;6.90;1.00
15991;DHT22;8100;50.994;4.538;2023-02-12T09:00:56;6.90;1.00
15991;DHT22;8100;50.994;4.538;2023-02-12T09:03:44;6.90;1.00
15991;DHT22;8100;50.994;4.538;2023-02-12T09:06:34;7.00;1.00
15991;DHT22;8100;50.994;4.538;2023-02-12T09:09:21;7.10;1.00
15991;DHT22;8100;50.994;4.538;2023-02-12T09:12:08;7.10;1.00
15991;DHT22;8100;50.994;4.538;2023-02-12T09:14:56;7.10;1.00
15991;DHT22;8100;50.994;4.538;2023-02-12T09:17:46;7.20;1.00
15991;DHT22;8100;50.994;4.538;2023-02-12T09:20:36;7.30;1.00
15991;DHT22;8100;50.994;4.538;2023-02-12T09:23:24;7.30;1.00
15991;DHT22;8100;50.994;4.538;2023-02-12T09:26:13;7.40;1.00
15991;DHT22;8100;50.994;4.538;2023-02-12T09:29:02;7.50;1.00
15991;DHT22;8100;50.994;4.538;2023-02-12T09:31:49;7.50;1.00
15991;DHT22;8100;50.994;4.538;2023-02-12T09:34:38;7.50;1.00
15991;DHT22;8100;50.994;4.538;2023-02-12T09:37:25;7.50;1.00
15991;DHT22;8100;50.994;4.538;2023-02-12T09:40:18;7.60;1.00
15991;DHT22;8100;50.994;4.538;2023-02-12T09:54:36;7.60;1.00
15991;DHT22;8100;50.994;4.538;2023-02-12T09:57:26;7.70;1.00
15991;DHT22;8100;50.994;4.538;2023-02-12T10:00:20;7.60;1.00
15991;DHT22;8100;50.994;4.538;2023-02-12T10:03:12;7.60;1.00
15991;DHT22;8100;50.994;4.538;2023-02-12T10:06:04;7.50;1.00
15991;DHT22;8100;50.994;4.538;2023-02-12T10:09:01;7.50;1.00
15991;DHT22;8100;50.994;4.538;2023-02-12T10:11:53;7.50;1.00
15991;DHT22;8100;50.994;4.538;2023-02-12T10:14:56;7.60;1.00
15991;DHT22;8100;50.994;4.538;2023-02-12T10:17:50;7.60;1.00
15991;DHT22;8100;50.994;4.538;2023-02-12T10:20:53;7.60;1.00
15991;DHT22;8100;50.994;4.538;2023-02-12T10:24:02;7.60;1.00
15991;DHT22;8100;50.994;4.538;2023-02-12T10:26:57;7.70;1.00
15991;DHT22;8100;50.994;4.538;2023-02-12T10:29:47;7.80;1.00
15991;DHT22;8100;50.994;4.538;2023-02-12T10:32:36;7.80;1.00
15991;DHT22;8100;50.994;4.538;2023-02-12T10:35:24;7.80;1.00
15991;DHT22;8100;50.994;4.538;2023-02-12T10:38:16;7.90;1.00
15991;DHT22;8100;50.994;4.538;2023-02-12T10:41:04;7.90;1.00
15991;DHT22;8100;50.994;4.538;2023-02-12T10:43:53;7.90;1.00
15991;DHT22;8100;50.994;4.538;2023-02-12T10:46:40;8.00;1.00
15991;DHT22;8100;50.994;4.538;2023-02-12T10:49:30;8.00;1.00
15991;DHT22;8100;50.994;4.538;2023-02-12T10:52:27;8.00;1.00
15991;DHT22;8100;50.994;4.538;2023-02-12T10:55:27;8.00;1.00
15991;DHT22;8100;50.994;4.538;2023-02-12T10:58:19;8.10;1.00
15991;DHT22;8100;50.994;4.538;2023-02-12T11:01:16;8.20;1.00
15991;DHT22;8100;50.994;4.538;2023-02-12T11:04:19;8.10;1.00
15991;DHT22;8100;50.994;4.538;2023-02-12T11:07:07;8.20;1.00
15991;DHT22;8100;50.994;4.538;2023-02-12T11:09:56;8.20;1.00
15991;DHT22;8100;50.994;4.538;2023-02-12T11:12:43;8.20;1.00
15991;DHT22;8100;50.994;4.538;2023-02-12T11:15:36;8.30;1.00
15991;DHT22;8100;50.994;4.538;2023-02-12T11:18:27;8.20;1.00
15991;DHT22;8100;50.994;4.538;2023-02-12T11:21:22;8.30;1.00
15991;DHT22;8100;50.994;4.538;2023-02-12T11:24:28;8.30;1.00
15991;DHT22;8100;50.994;4.538;2023-02-12T11:27:23;8.40;1.00
15991;DHT22;8100;50.994;4.538;2023-02-12T11:30:14;8.40;1.00
15991;DHT22;8100;50.994;4.538;2023-02-12T11:33:25;8.40;1.00
15991;DHT22;8100;50.994;4.538;2023-02-12T11:36:17;8.50;1.00
15991;DHT22;8100;50.994;4.538;2023-02-12T11:39:18;8.50;1.00
15991;DHT22;8100;50.994;4.538;2023-02-12T11:42:15;8.60;1.00
15991;DHT22;8100;50.994;4.538;2023-02-12T11:45:03;8.60;1.00
15991;DHT22;8100;50.994;4.538;2023-02-12T11:47:51;8.60;1.00
15991;DHT22;8100;50.994;4.538;2023-02-12T11:50:45;8.60;1.00
15991;DHT22;8100;50.994;4.538;2023-02-12T11:53:36;8.60;1.00
15991;DHT22;8100;50.994;4.538;2023-02-12T11:56:39;8.70;1.00
15991;DHT22;8100;50.994;4.538;2023-02-12T11:59:32;8.70;1.00
15991;DHT22;8100;50.994;4.538;2023-02-12T12:02:24;8.70;1.00
15991;DHT22;8100;50.994;4.538;2023-02-12T12:05:17;8.60;1.00
15991;DHT22;8100;50.994;4.538;2023-02-12T12:08:13;8.70;1.00
15991;DHT22;8100;50.994;4.538;2023-02-12T12:11:06;8.70;1.00
15991;DHT22;8100;50.994;4.538;2023-02-12T12:14:00;8.60;1.00
15991;DHT22;8100;50.994;4.538;2023-02-12T12:16:53;8.60;1.00
15991;DHT22;8100;50.994;4.538;2023-02-12T12:20:04;8.60;1.00
15991;DHT22;8100;50.994;4.538;2023-02-12T12:22:58;8.60;1.00
15991;DHT22;8100;50.994;4.538;2023-02-12T12:25:50;8.70;1.00
15991;DHT22;8100;50.994;4.538;2023-02-12T12:28:43;8.70;1.00
15991;DHT22;8100;50.994;4.538;2023-02-12T12:31:33;8.70;1.00
15991;DHT22;8100;50.994;4.538;2023-02-12T12:34:23;8.70;1.00
15991;DHT22;8100;50.994;4.538;2023-02-12T12:37:27;8.80;1.00
15991;DHT22;8100;50.994;4.538;2023-02-12T12:40:30;8.80;1.00
15991;DHT22;8100;50.994;4.538;2023-02-12T12:43:30;8.80;1.00
15991;DHT22;8100;50.994;4.538;2023-02-12T12:46:36;8.90;1.00
15991;DHT22;8100;50.994;4.538;2023-02-12T12:49:49;8.70;1.00
15991;DHT22;8100;50.994;4.538;2023-02-12T12:52:59;8.60;1.00
15991;DHT22;8100;50.994;4.538;2023-02-12T12:56:19;8.70;1.00
15991;DHT22;8100;50.994;4.538;2023-02-12T12:59:31;8.80;1.00
15991;DHT22;8100;50.994;4.538;2023-02-12T13:02:53;8.80;1.00
15991;DHT22;8100;50.994;4.538;2023-02-12T13:05:55;8.80;1.00
15991;DHT22;8100;50.994;4.538;2023-02-12T13:12:37;8.80;1.00
15991;DHT22;8100;50.994;4.538;2023-02-12T13:15:35;8.90;1.00
15991;DHT22;8100;50.994;4.538;2023-02-12T13:18:34;8.90;1.00
15991;DHT22;8100;50.994;4.538;2023-02-12T13:21:34;9.00;1.00
15991;DHT22;8100;50.994;4.538;2023-02-12T13:24:27;9.00;1.00
15991;DHT22;8100;50.994;4.538;2023-02-12T13:27:19;8.90;1.00
15991;DHT22;8100;50.994;4.538;2023-02-12T13:30:20;8.90;1.00
15991;DHT22;8100;50.994;4.538;2023-02-12T13:33:15;8.90;1.00
15991;DHT22;8100;50.994;4.538;2023-02-12T13:36:05;8.90;1.00
15991;DHT22;8100;50.994;4.538;2023-02-12T13:38:57;8.90;1.00
15991;DHT22;8100;50.994;4.538;2023-02-12T13:41:56;9.00;1.00
15991;DHT22;8100;50.994;4.538;2023-02-12T13:44:49;8.90;1.00
15991;DHT22;8100;50.994;4.538;2023-02-12T13:47:48;8.90;1.00
15991;DHT22;8100;50.994;4.538;2023-02-12T13:50:44;9.00;1.00
15991;DHT22;8100;50.994;4.538;2023-02-12T13:53:44;9.00;1.00
15991;DHT22;8100;50.994;4.538;2023-02-12T13:56:39;9.00;1.00
15991;DHT22;8100;50.994;4.538;2023-02-12T13:59:44;9.00;1.00
15991;DHT22;8100;50.994;4.538;2023-02-12T14:02:43;9.00;1.00
15991;DHT22;8100;50.994;4.538;2023-02-12T14:05:31;9.00;1.00
15991;DHT22;8100;50.994;4.538;2023-02-12T14:08:33;9.00;1.00
15991;DHT22;8100;50.994;4.538;2023-02-12T14:11:24;9.00;1.00
15991;DHT22;8100;50.994;4.538;2023-02-12T14:14:12;9.00;1.00
15991;DHT22;8100;50.994;4.538;2023-02-12T14:36:37;8.90;1.00
15991;DHT22;8100;50.994;4.538;2023-02-12T14:39:28;8.60;1.00
15991;DHT22;8100;50.994;4.538;2023-02-12T14:45:36;8.70;1.00
15991;DHT22;8100;50.994;4.538;2023-02-12T14:48:47;8.70;1.00
15991;DHT22;8100;50.994;4.538;2023-02-12T14:51:41;8.60;1.00
15991;DHT22;8100;50.994;4.538;2023-02-12T14:54:31;8.60;1.00
15991;DHT22;8100;50.994;4.538;2023-02-12T14:57:23;8.60;1.00
15991;DHT22;8100;50.994;4.538;2023-02-12T15:00:21;8.60;1.00
15991;DHT22;8100;50.994;4.538;2023-02-12T15:03:17;8.60;1.00
15991;DHT22;8100;50.994;4.538;2023-02-12T15:06:10;8.60;1.00
15991;DHT22;8100;50.994;4.538;2023-02-12T15:09:06;8.60;1.00
15991;DHT22;8100;50.994;4.538;2023-02-12T15:12:02;8.60;1.00
15991;DHT22;8100;50.994;4.538;2023-02-12T15:14:53;8.60;1.00
15991;DHT22;8100;50.994;4.538;2023-02-12T15:17:55;8.60;1.00
15991;DHT22;8100;50.994;4.538;2023-02-12T15:20:47;8.60;1.00
15991;DHT22;8100;50.994;4.538;2023-02-12T15:23:39;8.50;1.00
15991;DHT22;8100;50.994;4.538;2023-02-12T15:26:29;8.50;1.00
15991;DHT22;8100;50.994;4.538;2023-02-12T15:29:20;8.50;1.00
15991;DHT22;8100;50.994;4.538;2023-02-12T15:32:14;8.40;1.00
15991;DHT22;8100;50.994;4.538;2023-02-12T15:35:03;8.50;1.00
15991;DHT22;8100;50.994;4.538;2023-02-12T15:37:52;8.50;1.00
15991;DHT22;8100;50.994;4.538;2023-02-12T15:40:52;8.40;1.00
15991;DHT22;8100;50.994;4.538;2023-02-12T15:43:41;8.40;1.00
15991;DHT22;8100;50.994;4.538;2023-02-12T15:46:29;8.40;1.00
15991;DHT22;8100;50.994;4.538;2023-02-12T15:49:19;8.40;1.00
15991;DHT22;8100;50.994;4.538;2023-02-12T15:52:10;8.40;1.00
15991;DHT22;8100;50.994;4.538;2023-02-12T15:55:04;8.40;1.00
15991;DHT22;8100;50.994;4.538;2023-02-12T15:57:54;8.40;1.00
15991;DHT22;8100;50.994;4.538;2023-02-12T16:00:44;8.30;1.00
15991;DHT22;8100;50.994;4.538;2023-02-12T16:03:34;8.30;1.00
15991;DHT22;8100;50.994;4.538;2023-02-12T16:06:23;8.30;1.00
15991;DHT22;8100;50.994;4.538;2023-02-12T16:09:15;8.30;1.00
15991;DHT22;8100;50.994;4.538;2023-02-12T16:12:06;8.30;1.00
15991;DHT22;8100;50.994;4.538;2023-02-12T16:14:58;8.20;1.00
15991;DHT22;8100;50.994;4.538;2023-02-12T16:17:47;8.20;1.00
15991;DHT22;8100;50.994;4.538;2023-02-12T16:20:34;8.20;1.00
15991;DHT22;8100;50.994;4.538;2023-02-12T16:23:21;8.20;1.00
15991;DHT22;8100;50.994;4.538;2023-02-12T16:26:15;8.20;1.00
15991;DHT22;8100;50.994;4.538;2023-02-12T16:29:03;8.10;1.00
15991;DHT22;8100;50.994;4.538;2023-02-12T16:31:56;8.10;1.00
15991;DHT22;8100;50.994;4.538;2023-02-12T16:34:58;8.10;1.00
15991;DHT22;8100;50.994;4.538;2023-02-12T16:37:47;8.10;1.00
15991;DHT22;8100;50.994;4.538;2023-02-12T16:40:35;8.00;1.00
15991;DHT22;8100;50.994;4.538;2023-02-12T16:43:25;8.00;1.00
15991;DHT22;8100;50.994;4.538;2023-02-12T16:46:13;8.00;1.00
15991;DHT22;8100;50.994;4.538;2023-02-12T16:49:02;8.00;1.00
15991;DHT22;8100;50.994;4.538;2023-02-12T16:51:51;8.00;1.00
15991;DHT22;8100;50.994;4.538;2023-02-12T16:54:39;7.90;1.00
15991;DHT22;8100;50.994;4.538;2023-02-12T16:57:26;7.90;1.00
15991;DHT22;8100;50.994;4.538;2023-02-12T17:00:15;7.90;1.00
15991;DHT22;8100;50.994;4.538;2023-02-12T17:03:02;7.90;1.00
15991;DHT22;8100;50.994;4.538;2023-02-12T17:05:50;7.90;1.00
15991;DHT22;8100;50.994;4.538;2023-02-12T17:08:39;7.80;1.00
15991;DHT22;8100;50.994;4.538;2023-02-12T17:11:27;7.80;1.00
15991;DHT22;8100;50.994;4.538;2023-02-12T17:14:16;7.80;1.00
15991;DHT22;8100;50.994;4.538;2023-02-12T17:17:03;7.80;1.00
15991;DHT22;8100;50.994;4.538;2023-02-12T17:19:51;7.80;1.00
15991;DHT22;8100;50.994;4.538;2023-02-12T17:22:38;7.80;1.00
15991;DHT22;8100;50.994;4.538;2023-02-12T17:25:29;7.80;1.00
15991;DHT22;8100;50.994;4.538;2023-02-12T17:28:18;7.80;1.00
15991;DHT22;8100;50.994;4.538;2023-02-12T17:31:06;7.80;1.00
15991;DHT22;8100;50.994;4.538;2023-02-12T17:33:53;7.80;1.00
15991;DHT22;8100;50.994;4.538;2023-02-12T17:36:40;7.70;1.00
15991;DHT22;8100;50.994;4.538;2023-02-12T17:39:28;7.70;1.00
15991;DHT22;8100;50.994;4.538;2023-02-12T17:42:17;7.70;1.00
15991;DHT22;8100;50.994;4.538;2023-02-12T17:45:04;7.70;1.00
15991;DHT22;8100;50.994;4.538;2023-02-12T17:47:52;7.70;1.00
15991;DHT22;8100;50.994;4.538;2023-02-12T17:50:40;7.70;1.00
15991;DHT22;8100;50.994;4.538;2023-02-12T17:53:28;7.70;1.00
15991;DHT22;8100;50.994;4.538;2023-02-12T17:56:17;7.70;1.00
15991;DHT22;8100;50.994;4.538;2023-02-12T17:59:06;7.70;1.00
15991;DHT22;8100;50.994;4.538;2023-02-12T18:01:53;7.70;1.00
15991;DHT22;8100;50.994;4.538;2023-02-12T18:04:41;7.70;1.00
15991;DHT22;8100;50.994;4.538;2023-02-12T18:07:30;7.60;1.00
15991;DHT22;8100;50.994;4.538;2023-02-12T18:10:18;7.60;1.00
15991;DHT22;8100;50.994;4.538;2023-02-12T18:13:05;7.60;1.00
15991;DHT22;8100;50.994;4.538;2023-02-12T18:15:54;7.60;1.00
15991;DHT22;8100;50.994;4.538;2023-02-12T18:18:41;7.60;1.00
15991;DHT22;8100;50.994;4.538;2023-02-12T18:21:28;7.60;1.00
15991;DHT22;8100;50.994;4.538;2023-02-12T18:24:15;7.60;1.00
15991;DHT22;8100;50.994;4.538;2023-02-12T18:27:03;7.60;1.00
15991;DHT22;8100;50.994;4.538;2023-02-12T18:29:50;7.60;1.00
15991;DHT22;8100;50.994;4.538;2023-02-12T18:32:38;7.60;1.00
15991;DHT22;8100;50.994;4.538;2023-02-12T18:35:26;7.60;1.00
15991;DHT22;8100;50.994;4.538;2023-02-12T18:38:13;7.60;1.00
15991;DHT22;8100;50.994;4.538;2023-02-12T18:41:05;7.60;1.00
15991;DHT22;8100;50.994;4.538;2023-02-12T18:43:52;7.60;1.00
15991;DHT22;8100;50.994;4.538;2023-02-12T18:46:40;7.60;1.00
15991;DHT22;8100;50.994;4.538;2023-02-12T18:49:29;7.60;1.00
15991;DHT22;8100;50.994;4.538;2023-02-12T18:52:16;7.60;1.00
15991;DHT22;8100;50.994;4.538;2023-02-12T18:55:04;7.60;1.00
15991;DHT22;8100;50.994;4.538;2023-02-12T18:57:51;7.60;1.00
15991;DHT22;8100;50.994;4.538;2023-02-12T19:00:38;7.50;1.00
15991;DHT22;8100;50.994;4.538;2023-02-12T19:03:26;7.60;1.00
15991;DHT22;8100;50.994;4.538;2023-02-12T19:06:15;7.50;1.00
15991;DHT22;8100;50.994;4.538;2023-02-12T19:09:03;7.60;1.00
15991;DHT22;8100;50.994;4.538;2023-02-12T19:11:52;7.60;1.00
15991;DHT22;8100;50.994;4.538;2023-02-12T19:14:39;7.60;1.00
15991;DHT22;8100;50.994;4.538;2023-02-12T19:17:27;7.60;1.00
15991;DHT22;8100;50.994;4.538;2023-02-12T19:20:14;7.60;1.00
15991;DHT22;8100;50.994;4.538;2023-02-12T19:23:03;7.50;1.00
15991;DHT22;8100;50.994;4.538;2023-02-12T19:25:50;7.50;1.00
15991;DHT22;8100;50.994;4.538;2023-02-12T19:28:38;7.50;1.00
15991;DHT22;8100;50.994;4.538;2023-02-12T19:31:27;7.50;1.00
15991;DHT22;8100;50.994;4.538;2023-02-12T19:34:16;7.50;1.00
15991;DHT22;8100;50.994;4.538;2023-02-12T19:37:04;7.50;1.00